Time;durP1;ratioP1;P1;durP2;ratioP2;P2;SDS_P1;SDS_P2;PMS_P1;PMS_P2;Temp;Humidity;BMP_temperature;BMP_pressure;BME280_temperature;BME280_humidity;BME280_pressure;Samples;Min_cycle;Max_cycle;Signal;HPM_P1;HPM_P2
2022/03/19 00:01:55;;;;;;;17.58;6.88;;;;;;;4.64;35.01;101554.41;5089361;28;20318;-71
2022/03/19 00:04:21;;;;;;;16.48;5.70;;;;;;;4.58;35.09;101549.75;5084656;28;20059;-70
2022/03/19 00:06:48;;;;;;;24.67;6.25;;;;;;;4.53;35.21;101553.06;5087498;28;20037;-71
2022/03/19 00:09:14;;;;;;;15.43;6.28;;;;;;;4.39;35.26;101524.97;5088743;28;20600;-71
2022/03/19 00:11:41;;;;;;;17.33;5.78;;;;;;;4.52;35.10;101537.81;5079376;28;20458;-71
2022/03/19 00:14:11;;;;;;;18.98;6.25;;;;;;;4.46;35.43;101535.88;5087815;28;20138;-71
2022/03/19 00:16:38;;;;;;;17.73;5.82;;;;;;;4.47;35.27;101542.97;5086562;28;20407;-73
2022/03/19 00:19:05;;;;;;;15.35;5.90;;;;;;;4.46;35.42;101539.44;5081967;28;20052;-71
2022/03/19 00:21:34;;;;;;;15.85;6.00;;;;;;;4.44;35.44;101527.94;5089135;28;20143;-71
2022/03/19 00:24:04;;;;;;;16.05;5.57;;;;;;;4.43;35.46;101531.69;5088684;28;20044;-72
2022/03/19 00:26:30;;;;;;;16.58;6.07;;;;;;;4.42;35.51;101532.72;5081540;28;20566;-68
2022/03/19 00:28:58;;;;;;;16.07;6.30;;;;;;;4.39;35.53;101531.25;5089111;28;20060;-75
2022/03/19 00:31:24;;;;;;;22.53;6.07;;;;;;;4.39;35.65;101535.81;5087959;28;20827;-72
2022/03/19 00:33:50;;;;;;;25.75;6.25;;;;;;;4.37;35.57;101525.19;5087607;28;20302;-73
2022/03/19 00:36:16;;;;;;;17.15;6.25;;;;;;;4.40;35.64;101524.78;5089659;28;20039;-73
2022/03/19 00:38:42;;;;;;;16.23;6.07;;;;;;;4.38;35.84;101526.84;5089686;28;20055;-73
2022/03/19 00:41:09;;;;;;;16.40;6.38;;;;;;;4.34;35.72;101528.25;5078929;28;20634;-73
2022/03/19 00:43:36;;;;;;;22.20;6.85;;;;;;;4.30;35.91;101529.66;5073577;28;20143;-73
2022/03/19 00:46:03;;;;;;;;;;;;;;;4.23;36.00;101526.88;5085117;28;20072;-74
2022/03/19 00:48:29;;;;;;;25.33;6.55;;;;;;;4.24;35.88;101539.38;5092871;28;19930;-73
2022/03/19 00:50:56;;;;;;;18.48;6.18;;;;;;;4.16;35.90;101528.69;5090289;28;20044;-72
2022/03/19 00:53:22;;;;;;;18.85;6.13;;;;;;;4.21;36.06;101533.50;5054983;28;20048;-71
2022/03/19 00:55:48;;;;;;;16.40;5.80;;;;;;;4.26;35.85;101539.22;5087393;28;20079;-68
2022/03/19 00:58:14;;;;;;;15.85;5.50;;;;;;;4.25;35.89;101532.13;5085693;28;20137;-73
2022/03/19 01:00:40;;;;;;;23.88;6.20;;;;;;;4.19;36.00;101532.84;5092028;28;20093;-73
2022/03/19 01:03:07;;;;;;;21.45;6.63;;;;;;;4.11;36.32;101525.69;5072925;28;20046;-72
2022/03/19 01:05:34;;;;;;;17.45;7.20;;;;;;;4.15;36.23;101534.28;5090795;28;20071;-73
2022/03/19 01:08:00;;;;;;;17.35;6.10;;;;;;;4.14;36.26;101541.56;5092303;28;20052;-71
2022/03/19 01:10:28;;;;;;;15.85;6.35;;;;;;;4.13;36.44;101533.63;5091214;28;20048;-74
2022/03/19 01:12:56;;;;;;;19.92;6.28;;;;;;;4.09;36.38;101534.00;5091465;28;20120;-73
2022/03/19 01:15:23;;;;;;;;;;;;;;;4.09;36.53;101541.28;5089150;28;20381;-65
2022/03/19 01:17:50;;;;;;;21.80;6.18;;;;;;;4.02;36.39;101529.53;5091336;28;20018;-67
2022/03/19 01:20:17;;;;;;;18.13;5.95;;;;;;;3.97;36.61;101536.34;5091767;28;20051;-65
2022/03/19 01:22:45;;;;;;;14.38;5.57;;;;;;;3.85;36.35;101516.22;5084946;28;20075;-66
2022/03/19 01:25:12;;;;;;;18.90;6.25;;;;;;;3.98;36.67;101545.31;5062878;28;20105;-67
2022/03/19 01:27:41;;;;;;;15.00;5.70;;;;;;;4.02;36.60;101540.38;5089048;28;20590;-67
2022/03/19 01:30:07;;;;;;;;;;;;;;;3.97;36.75;101544.47;5092341;28;20138;-67
2022/03/19 01:32:35;;;;;;;15.77;6.50;;;;;;;3.92;36.60;101541.50;5073630;28;19951;-73
2022/03/19 01:35:01;;;;;;;17.00;6.43;;;;;;;3.90;36.65;101548.09;5091034;28;20312;-72
2022/03/19 01:37:30;;;;;;;13.98;5.30;;;;;;;3.89;36.76;101543.72;5064403;28;20048;-72
2022/03/19 01:39:57;;;;;;;15.98;6.30;;;;;;;3.89;36.81;101549.13;5086790;28;20052;-73
2022/03/19 01:42:24;;;;;;;17.02;6.40;;;;;;;3.88;36.69;101548.31;5091878;28;20419;-73
2022/03/19 01:44:51;;;;;;;19.35;7.03;;;;;;;3.86;36.95;101553.06;5071699;28;20523;-73
2022/03/19 01:47:17;;;;;;;16.65;7.47;;;;;;;3.84;36.86;101547.00;5090703;28;20047;-73
2022/03/19 01:49:44;;;;;;;17.10;6.50;;;;;;;3.83;37.03;101548.88;5090469;28;20040;-73
2022/03/19 01:52:10;;;;;;;15.90;6.30;;;;;;;3.85;36.92;101547.84;5089952;28;20109;-72
2022/03/19 01:54:40;;;;;;;15.57;6.05;;;;;;;3.85;37.19;101551.41;5073911;28;20044;-73
2022/03/19 01:57:06;;;;;;;22.98;6.60;;;;;;;3.90;37.07;101556.22;5093146;28;20096;-73
2022/03/19 01:59:34;;;;;;;18.67;6.70;;;;;;;3.86;36.93;101555.78;5068292;28;20572;-74
2022/03/19 02:02:02;;;;;;;20.73;5.68;;;;;;;3.84;37.21;101563.25;5088102;28;20043;-73
2022/03/19 02:04:28;;;;;;;23.45;6.78;;;;;;;3.81;37.28;101563.59;5071529;28;20080;-74
2022/03/19 02:06:56;;;;;;;16.90;5.95;;;;;;;3.82;37.05;101567.97;5084711;28;20423;-74
2022/03/19 02:09:22;;;;;;;15.32;5.78;;;;;;;3.81;37.18;101567.16;5089487;28;20055;-74
2022/03/19 02:11:49;;;;;;;17.17;6.70;;;;;;;3.74;37.23;101568.09;5095418;28;20512;-74
2022/03/19 02:14:16;;;;;;;21.52;6.25;;;;;;;3.68;37.34;101565.09;5086647;28;20317;-74
2022/03/19 02:16:43;;;;;;;19.77;6.80;;;;;;;3.71;37.50;101572.00;5094545;28;20048;-75
2022/03/19 02:19:10;;;;;;;15.48;6.07;;;;;;;3.76;37.18;101564.19;5071357;28;20052;-73
2022/03/19 02:21:40;;;;;;;22.08;6.55;;;;;;;3.68;37.44;101559.69;5082396;28;20044;-74
2022/03/19 02:26:52;;;;;;;17.02;5.93;;;;;;;3.70;37.42;101573.03;5090004;28;20044;-73
2022/03/19 02:29:19;;;;;;;16.50;6.30;;;;;;;3.68;37.65;101569.66;5091050;28;20048;-73
2022/03/19 02:31:49;;;;;;;15.73;6.40;;;;;;;3.64;37.61;101571.06;5090813;28;20054;-74
2022/03/19 02:34:15;;;;;;;20.17;6.15;;;;;;;3.61;37.91;101568.75;5072628;28;20055;-74
2022/03/19 02:36:41;;;;;;;16.65;6.25;;;;;;;3.58;37.71;101561.81;5063735;28;20040;-74
2022/03/19 02:39:13;;;;;;;21.02;7.45;;;;;;;3.60;37.92;101578.72;5089582;28;20512;-74
2022/03/19 02:41:41;;;;;;;21.05;6.85;;;;;;;3.55;38.01;101578.44;5055189;28;20139;-73
2022/03/19 02:44:09;;;;;;;21.67;6.53;;;;;;;3.55;37.91;101578.44;5089887;28;20044;-74
2022/03/19 02:46:37;;;;;;;16.00;6.18;;;;;;;3.49;38.09;101573.75;5089959;28;20075;-74
2022/03/19 02:49:03;;;;;;;20.30;7.07;;;;;;;3.51;38.03;101571.69;5070911;28;20044;-73
2022/03/19 02:51:32;;;;;;;21.52;6.65;;;;;;;3.45;37.92;101572.44;5093319;28;20044;-73
2022/03/19 02:53:59;;;;;;;17.35;6.72;;;;;;;3.48;38.00;101572.91;5072607;28;20040;-72
2022/03/19 02:56:26;;;;;;;18.55;7.00;;;;;;;3.46;38.08;101571.41;5093079;28;20508;-72
2022/03/19 02:58:52;;;;;;;21.23;6.72;;;;;;;3.45;38.20;101565.19;5085274;28;20120;-73
2022/03/19 03:01:19;;;;;;;22.00;7.30;;;;;;;3.44;38.09;101568.91;5072364;28;20054;-72
2022/03/19 03:03:48;;;;;;;17.58;6.38;;;;;;;3.43;38.15;101566.38;5084615;28;20044;-72
2022/03/19 03:06:14;;;;;;;17.63;6.15;;;;;;;3.42;38.25;101565.53;5082107;28;20459;-74
2022/03/19 03:08:41;;;;;;;18.13;6.30;;;;;;;3.35;38.34;101567.28;5069700;28;20066;-74
2022/03/19 03:11:07;;;;;;;17.58;7.00;;;;;;;3.31;38.51;101563.28;5072040;28;20048;-72
2022/03/19 03:13:34;;;;;;;21.50;6.05;;;;;;;3.35;38.42;101573.53;5064731;28;20044;-73
2022/03/19 03:16:01;;;;;;;17.85;6.93;;;;;;;3.34;38.38;101576.44;5085489;28;20480;-72
2022/03/19 03:18:28;;;;;;;15.85;6.57;;;;;;;3.33;38.54;101572.88;5090220;28;20052;-71
2022/03/19 03:20:54;;;;;;;15.82;6.90;;;;;;;3.33;38.46;101567.47;5090259;28;20067;-74
2022/03/19 03:23:21;;;;;;;20.05;7.22;;;;;;;3.35;38.28;101561.88;5064109;28;20048;-74
2022/03/19 03:25:47;;;;;;;21.10;6.53;;;;;;;3.31;38.53;101566.81;5089648;28;20048;-74
2022/03/19 03:28:13;;;;;;;14.63;6.47;;;;;;;3.33;38.36;101566.63;5072983;28;20075;-73
2022/03/19 03:30:40;;;;;;;20.35;6.45;;;;;;;3.32;38.32;101563.09;5088438;28;20536;-73
2022/03/19 03:33:06;;;;;;;20.23;6.80;;;;;;;3.28;38.46;101563.63;5089191;28;20040;-72
2022/03/19 03:35:32;;;;;;;19.40;6.53;;;;;;;3.25;38.45;101565.69;5089719;28;20408;-72
2022/03/19 03:37:58;;;;;;;17.15;6.22;;;;;;;3.29;38.56;101568.03;5089121;28;20137;-73
2022/03/19 03:40:24;;;;;;;17.25;6.18;;;;;;;3.23;38.42;101559.63;5089546;28;20491;-73
2022/03/19 03:42:50;;;;;;;29.65;6.95;;;;;;;3.30;38.33;101575.13;5089853;28;20093;-72
2022/03/19 03:45:16;;;;;;;18.08;6.22;;;;;;;3.30;38.45;101578.66;5067246;28;20385;-73
2022/03/19 03:47:44;;;;;;;18.55;6.40;;;;;;;3.30;38.52;101577.81;5084373;28;20432;-72
2022/03/19 03:50:10;;;;;;;23.10;7.03;;;;;;;3.33;38.26;101578.28;5089361;28;20036;-66
2022/03/19 03:52:36;;;;;;;16.25;6.20;;;;;;;3.35;38.37;101586.22;5088618;28;20040;-67
2022/03/19 03:55:06;;;;;;;17.10;5.60;;;;;;;3.37;38.38;101578.75;5075479;28;20150;-67
2022/03/19 03:57:34;;;;;;;15.80;6.35;;;;;;;3.35;38.39;101581.63;5069309;28;20427;-67
2022/03/19 04:00:01;;;;;;;17.80;6.20;;;;;;;3.36;38.24;101587.91;5085872;28;20513;-73
2022/03/19 04:02:29;;;;;;;18.65;6.57;;;;;;;3.36;38.39;101587.91;5085845;28;20074;-72
2022/03/19 04:04:56;;;;;;;17.10;6.68;;;;;;;3.38;38.37;101585.84;5093938;28;20063;-72
2022/03/19 04:07:23;;;;;;;;;;;;;;;3.38;38.27;101592.13;5070856;28;20468;-73
2022/03/19 04:09:49;;;;;;;17.90;6.35;;;;;;;3.38;38.28;101589.41;5075529;28;20018;-73
2022/03/19 04:12:16;;;;;;;15.15;6.78;;;;;;;3.45;37.93;101592.22;5085872;28;20051;-72
2022/03/19 04:14:42;;;;;;;16.73;5.60;;;;;;;3.48;38.07;101593.69;5087745;28;20036;-74
2022/03/19 04:17:08;;;;;;;17.52;6.60;;;;;;;3.50;38.19;101594.34;5089313;28;20131;-73
2022/03/19 04:19:34;;;;;;;16.83;6.32;;;;;;;3.48;38.05;101599.97;5090022;28;20127;-73
2022/03/19 04:22:01;;;;;;;20.40;6.97;;;;;;;3.50;38.11;101599.75;5091972;28;20048;-73
2022/03/19 04:24:27;;;;;;;17.33;6.28;;;;;;;3.51;38.22;101601.44;5092921;28;20097;-73
2022/03/19 04:26:53;;;;;;;16.58;6.70;;;;;;;3.53;38.20;101602.94;5088759;28;20054;-72
2022/03/19 04:29:20;;;;;;;14.52;6.30;;;;;;;3.54;38.18;101606.50;5086262;28;20478;-73
2022/03/19 04:31:46;;;;;;;25.70;7.40;;;;;;;3.59;38.22;101608.63;5092868;28;20511;-73
2022/03/19 04:34:12;;;;;;;15.68;6.72;;;;;;;3.63;38.05;101613.50;5092274;28;20101;-73
2022/03/19 04:36:40;;;;;;;29.02;7.05;;;;;;;3.63;38.07;101601.84;5091743;28;20127;-71
2022/03/19 04:39:08;;;;;;;17.88;6.60;;;;;;;3.72;38.02;101605.31;5073477;28;20052;-72
2022/03/19 04:41:36;;;;;;;20.08;7.00;;;;;;;3.72;38.02;101611.56;5091420;28;20131;-71
2022/03/19 04:44:03;;;;;;;23.63;7.13;;;;;;;3.75;37.74;101616.63;5091459;28;20060;-73
2022/03/19 04:46:30;;;;;;;20.60;7.28;;;;;;;3.77;37.81;101611.84;5083793;28;20051;-73
2022/03/19 04:48:56;;;;;;;19.75;6.57;;;;;;;3.84;37.84;101620.09;5091683;28;20507;-71
2022/03/19 04:51:30;;;;;;;18.70;7.32;;;;;;;3.85;37.85;101615.50;5088481;28;20415;-72
2022/03/19 04:53:56;;;;;;;16.30;6.90;;;;;;;3.99;37.64;101609.25;5088698;28;20062;-66
2022/03/19 04:56:25;;;;;;;25.80;8.30;;;;;;;4.05;37.53;101618.50;5073073;28;20497;-67
2022/03/19 04:58:54;;;;;;;29.60;6.75;;;;;;;4.11;37.33;101609.59;5088198;28;20048;-67
2022/03/19 05:01:20;;;;;;;17.45;6.18;;;;;;;4.14;37.12;101622.78;5082819;28;20051;-69
2022/03/19 05:03:47;;;;;;;19.73;6.72;;;;;;;4.15;37.38;101623.63;5073415;28;20047;-64
2022/03/19 05:06:13;;;;;;;21.10;7.22;;;;;;;4.20;37.21;101618.47;5086488;28;20531;-65
2022/03/19 05:08:40;;;;;;;22.02;6.43;;;;;;;4.33;37.04;101629.47;5096999;28;20052;-72
2022/03/19 05:11:17;;;;;;;19.75;6.80;;;;;;;4.37;36.88;101638.09;5091704;28;20044;-74
2022/03/19 05:13:53;;;;;;;17.95;6.68;;;;;;;4.47;36.77;101629.66;5060695;28;20070;-69
2022/03/19 05:16:19;;;;;;;22.98;7.80;;;;;;;4.53;36.78;101640.59;5072671;28;20113;-68
2022/03/19 05:18:45;;;;;;;24.08;6.70;;;;;;;4.60;36.50;101640.66;5090732;28;20522;-68
2022/03/19 05:21:13;;;;;;;23.27;6.93;;;;;;;4.72;36.29;101640.19;5074533;28;20047;-68
2022/03/19 05:23:42;;;;;;;21.10;7.45;;;;;;;4.80;36.32;101649.03;5090310;28;20522;-68
2022/03/19 05:26:10;;;;;;;20.40;7.18;;;;;;;4.84;36.53;101641.38;5090602;28;20522;-68
2022/03/19 05:28:36;;;;;;;21.17;7.38;;;;;;;4.90;36.40;101647.88;5082446;28;20329;-68
2022/03/19 05:31:03;;;;;;;41.25;8.48;;;;;;;4.92;36.30;101653.97;5089458;28;20048;-67
2022/03/19 05:36:14;;;;;;;24.42;7.28;;;;;;;5.11;36.09;101652.47;5094565;28;19923;-66
2022/03/19 05:38:41;;;;;;;21.00;7.45;;;;;;;5.21;35.84;101649.44;5091574;28;20055;-68
2022/03/19 05:41:08;;;;;;;20.80;7.63;;;;;;;5.35;35.66;101653.97;5092906;28;20139;-68
2022/03/19 05:43:34;;;;;;;22.60;6.97;;;;;;;5.39;35.57;101654.41;5076625;28;20681;-66
2022/03/19 05:46:01;;;;;;;21.85;6.90;;;;;;;5.45;35.45;101648.19;5083430;28;20508;-66
2022/03/19 05:48:28;;;;;;;19.67;6.80;;;;;;;5.53;35.61;101648.06;5083650;28;20048;-68
2022/03/19 05:50:54;;;;;;;24.10;7.78;;;;;;;5.69;35.16;101651.53;5090597;28;20047;-66
2022/03/19 05:53:21;;;;;;;24.38;7.50;;;;;;;5.68;35.48;101641.72;5075885;28;20101;-68
2022/03/19 05:55:47;;;;;;;19.17;7.05;;;;;;;5.76;35.29;101649.69;5071577;28;20067;-67
2022/03/19 05:58:13;;;;;;;20.90;7.60;;;;;;;5.79;35.33;101649.34;5083533;28;20512;-68
2022/03/19 06:00:40;;;;;;;24.17;7.43;;;;;;;5.85;35.20;101650.41;5090851;28;20052;-67
2022/03/19 06:03:06;;;;;;;20.70;6.90;;;;;;;5.88;35.06;101635.59;5090087;28;20055;-67
2022/03/19 06:05:34;;;;;;;21.00;7.25;;;;;;;6.03;34.79;101649.09;5082368;28;20075;-68
2022/03/19 06:08:01;;;;;;;16.75;7.20;;;;;;;6.16;34.73;101651.88;5072945;28;20058;-68
2022/03/19 06:10:27;;;;;;;18.90;7.00;;;;;;;6.17;34.55;101642.72;5056217;28;20518;-68
2022/03/19 06:12:56;;;;;;;20.15;7.15;;;;;;;6.18;34.64;101644.41;5090898;28;20047;-74
2022/03/19 06:15:23;;;;;;;17.23;7.05;;;;;;;6.27;34.57;101647.78;5088364;28;20075;-73
2022/03/19 06:17:50;;;;;;;19.48;7.10;;;;;;;6.45;34.49;101651.84;5072838;28;20142;-72
2022/03/19 06:20:22;;;;;;;16.38;6.90;;;;;;;6.48;34.41;101649.56;5087154;28;20048;-73
2022/03/19 06:22:50;;;;;;;20.55;7.20;;;;;;;6.53;34.31;101654.38;5050659;28;20062;-72
2022/03/19 06:25:16;;;;;;;19.87;6.87;;;;;;;6.57;34.23;101658.38;5090099;28;20059;-73
2022/03/19 06:27:42;;;;;;;20.30;7.13;;;;;;;6.58;34.35;101649.19;5073430;28;20298;-71
2022/03/19 06:30:10;;;;;;;25.58;8.15;;;;;;;6.73;34.19;101656.34;5092057;28;20056;-72
2022/03/19 06:32:36;;;;;;;22.83;7.35;;;;;;;6.80;33.90;101640.88;5091965;28;20048;-72
2022/03/19 06:35:04;;;;;;;18.65;7.55;;;;;;;6.95;34.09;101655.16;5072354;28;20062;-72
2022/03/19 06:37:31;;;;;;;25.52;8.35;;;;;;;7.03;34.00;101653.31;5086086;28;20139;-71
2022/03/19 06:40:06;;;;;;;31.20;8.07;;;;;;;7.14;34.14;101646.41;5072156;28;20044;-70
2022/03/19 06:42:33;;;;;;;22.48;7.30;;;;;;;7.27;34.12;101659.19;5099480;28;20043;-71
2022/03/19 06:44:59;;;;;;;23.30;7.78;;;;;;;7.33;33.88;101661.06;5084305;28;20052;-70
2022/03/19 06:47:25;;;;;;;23.13;8.32;;;;;;;7.27;33.95;101670.06;5071280;28;20152;-72
2022/03/19 06:49:51;;;;;;;25.77;9.35;;;;;;;7.29;34.21;101654.38;5076793;28;20514;-71
2022/03/19 06:52:17;;;;;;;22.38;8.10;;;;;;;7.46;33.59;101666.53;5091206;28;20508;-71
2022/03/19 06:54:43;;;;;;;21.25;8.10;;;;;;;7.59;33.60;101668.44;5091207;28;20055;-71
2022/03/19 06:57:11;;;;;;;;;;;;;;;7.70;33.48;101669.69;5074406;28;20048;-70
2022/03/19 06:59:38;;;;;;;30.80;8.60;;;;;;;7.77;33.47;101658.81;5080121;28;20409;-70
2022/03/19 07:02:04;;;;;;;24.52;9.07;;;;;;;7.82;33.38;101659.00;5089383;28;20325;-71
2022/03/19 07:04:30;;;;;;;30.42;8.57;;;;;;;7.90;33.17;101655.22;5081557;28;20068;-72
2022/03/19 07:06:56;;;;;;;19.92;9.13;;;;;;;7.93;33.14;101650.19;5071041;28;20425;-72
2022/03/19 07:09:22;;;;;;;23.17;8.35;;;;;;;8.05;32.85;101655.00;5071968;28;20044;-71
2022/03/19 07:11:49;;;;;;;25.85;8.50;;;;;;;8.10;32.59;101655.19;5056729;28;20098;-72
2022/03/19 07:14:17;;;;;;;;;;;;;;;8.18;32.62;101663.13;5053578;28;20056;-72
2022/03/19 07:16:45;;;;;;;28.70;8.88;;;;;;;8.22;32.54;101644.47;5080864;28;19924;-72
2022/03/19 07:19:12;;;;;;;23.38;7.85;;;;;;;8.30;32.40;101659.75;5080901;28;20103;-71
2022/03/19 07:21:38;;;;;;;28.30;8.75;;;;;;;8.36;32.55;101657.00;5091371;28;20101;-71
2022/03/19 07:24:05;;;;;;;25.48;8.27;;;;;;;8.45;32.45;101664.97;5079023;28;20048;-72
2022/03/19 07:26:33;;;;;;;27.95;9.50;;;;;;;8.51;32.22;101661.38;5070542;28;20056;-73
2022/03/19 07:29:00;;;;;;;31.45;8.57;;;;;;;8.59;32.15;101661.16;5063182;28;20078;-74
2022/03/19 07:31:27;;;;;;;26.73;8.85;;;;;;;8.67;32.10;101660.09;5088220;28;20472;-73
2022/03/19 07:33:53;;;;;;;22.00;8.63;;;;;;;8.77;32.26;101668.63;5068834;28;20071;-73
2022/03/19 07:36:19;;;;;;;31.70;8.85;;;;;;;8.83;31.88;101663.38;5072305;28;20345;-74
2022/03/19 07:38:46;;;;;;;28.35;8.27;;;;;;;8.92;31.63;101662.03;5089977;28;20048;-74
2022/03/19 07:43:57;;;;;;;20.13;7.57;;;;;;;8.86;31.25;101673.84;5089429;28;20058;-74
2022/03/19 07:46:25;;;;;;;22.10;7.93;;;;;;;8.94;31.16;101670.84;5089893;28;20499;-73
2022/03/19 07:48:52;;;;;;;20.63;7.05;;;;;;;8.98;31.21;101663.06;5090368;28;20048;-74
2022/03/19 07:51:18;;;;;;;24.88;6.35;;;;;;;9.08;31.04;101660.72;5104353;28;20051;-73
2022/03/19 07:53:45;;;;;;;20.58;6.30;;;;;;;9.13;30.78;101647.22;5090773;28;20056;-73
2022/03/19 07:56:12;;;;;;;18.65;6.30;;;;;;;9.29;30.56;101655.94;5082748;28;20054;-74
2022/03/19 07:58:40;;;;;;;18.42;6.28;;;;;;;9.42;30.52;101650.41;5074899;28;20039;-73
2022/03/19 08:01:06;;;;;;;16.83;5.93;;;;;;;9.51;30.47;101656.41;5057167;28;20142;-74
2022/03/19 08:03:34;;;;;;;19.08;6.15;;;;;;;9.53;30.13;101653.47;5091181;28;20093;-73
2022/03/19 08:06:01;;;;;;;21.92;5.82;;;;;;;9.53;30.05;101646.09;5091828;28;20083;-73
2022/03/19 08:08:28;;;;;;;15.50;7.13;;;;;;;9.69;29.76;101657.53;5078970;28;20135;-73
2022/03/19 08:10:54;;;;;;;13.93;5.18;;;;;;;9.79;29.41;101655.13;5091466;28;20048;-74
2022/03/19 08:13:20;;;;;;;16.50;5.00;;;;;;;9.87;29.38;101656.75;5078525;28;20565;-74
2022/03/19 08:15:46;;;;;;;16.88;5.35;;;;;;;10.00;29.29;101664.81;5093832;28;20067;-73
2022/03/19 08:18:13;;;;;;;18.42;7.20;;;;;;;10.11;29.21;101663.22;5067124;28;20538;-73
2022/03/19 08:20:40;;;;;;;14.45;6.00;;;;;;;10.21;28.90;101662.72;5093227;28;20068;-73
2022/03/19 08:23:09;;;;;;;17.67;5.85;;;;;;;10.24;28.72;101655.97;5091389;28;20149;-72
2022/03/19 08:25:35;;;;;;;14.85;5.97;;;;;;;10.38;28.68;101673.88;5068885;28;20048;-73
2022/03/19 08:28:02;;;;;;;17.25;5.75;;;;;;;10.43;28.58;101671.31;5092749;28;20505;-72
2022/03/19 08:30:28;;;;;;;21.48;5.43;;;;;;;10.50;28.31;101669.34;5092760;28;20131;-73
2022/03/19 08:32:54;;;;;;;16.50;5.65;;;;;;;10.64;28.25;101661.81;5091569;28;20138;-73
2022/03/19 08:35:21;;;;;;;18.13;5.53;;;;;;;10.75;28.13;101657.47;5092096;28;20044;-73
2022/03/19 08:37:47;;;;;;;19.17;5.88;;;;;;;10.85;28.11;101662.38;5091873;28;20056;-71
2022/03/19 08:40:18;;;;;;;22.25;6.03;;;;;;;10.97;27.91;101658.88;5089246;28;20036;-73
2022/03/19 08:42:48;;;;;;;18.65;6.22;;;;;;;11.06;28.01;101666.53;5092428;28;20150;-73
2022/03/19 08:45:14;;;;;;;18.75;6.20;;;;;;;11.15;27.82;101668.91;5088876;28;20060;-73
2022/03/19 08:47:40;;;;;;;23.25;5.78;;;;;;;11.27;27.65;101667.06;5092521;28;20048;-74
2022/03/19 08:50:07;;;;;;;19.10;5.43;;;;;;;11.46;27.69;101661.50;5074244;28;20151;-73
2022/03/19 08:52:34;;;;;;;21.20;6.32;;;;;;;11.58;27.49;101654.13;5073100;28;20098;-73
2022/03/19 08:55:01;;;;;;;18.45;5.60;;;;;;;11.68;27.37;101666.44;5075056;28;20044;-73
2022/03/19 08:57:31;;;;;;;17.50;6.47;;;;;;;11.78;27.19;101664.75;5074535;28;20071;-74
2022/03/19 08:59:57;;;;;;;;;;;;;;;11.96;26.95;101673.13;5092834;28;20075;-73
2022/03/19 09:02:23;;;;;;;16.33;5.15;;;;;;;12.10;26.82;101676.47;5093252;28;19974;-73
2022/03/19 09:04:49;;;;;;;22.92;6.20;;;;;;;12.26;26.70;101675.75;5092217;28;20439;-74
2022/03/19 09:07:16;;;;;;;25.05;6.30;;;;;;;12.37;26.55;101674.06;5090642;28;20048;-74
2022/03/19 09:09:42;;;;;;;18.75;7.18;;;;;;;12.59;26.24;101678.91;5090010;28;20052;-71
2022/03/19 09:12:09;;;;;;;17.80;7.10;;;;;;;12.70;25.98;101686.25;5094733;28;20515;-74
2022/03/19 09:14:36;;;;;;;19.35;6.28;;;;;;;12.83;25.98;101679.69;5092759;28;20535;-74
2022/03/19 09:17:03;;;;;;;17.20;6.85;;;;;;;12.82;25.94;101660.69;5091643;28;20068;-72
2022/03/19 09:19:29;;;;;;;21.13;5.78;;;;;;;13.03;25.79;101672.91;5093807;28;20048;-74
2022/03/19 09:21:56;;;;;;;18.70;6.07;;;;;;;13.14;25.73;101680.28;5087856;28;20458;-75
2022/03/19 09:24:23;;;;;;;22.50;5.60;;;;;;;13.26;25.42;101669.22;5065464;28;20043;-74
2022/03/19 09:26:49;;;;;;;16.83;5.82;;;;;;;13.39;25.29;101665.31;5090891;28;20157;-74
2022/03/19 09:29:16;;;;;;;17.25;6.00;;;;;;;13.52;25.20;101661.47;5095206;28;20051;-68
2022/03/19 09:31:43;;;;;;;29.38;7.25;;;;;;;13.61;24.77;101665.44;5089797;28;20063;-69
2022/03/19 09:34:10;;;;;;;23.27;6.68;;;;;;;13.73;24.64;101673.59;5089493;28;20559;-67
2022/03/19 09:36:36;;;;;;;17.67;6.75;;;;;;;13.84;24.56;101677.34;5084739;28;20047;-68
2022/03/19 09:39:02;;;;;;;22.67;6.22;;;;;;;13.88;24.60;101684.00;5103118;28;20530;-73
2022/03/19 09:41:28;;;;;;;23.00;6.43;;;;;;;14.08;24.33;101682.66;5069634;28;20047;-66
2022/03/19 09:43:57;;;;;;;22.40;6.43;;;;;;;14.20;24.02;101681.72;5092935;28;20044;-67
2022/03/19 09:46:24;;;;;;;23.00;6.45;;;;;;;14.31;24.11;101681.59;5092036;28;20059;-67
2022/03/19 09:48:53;;;;;;;18.65;6.57;;;;;;;14.41;24.07;101682.84;5066084;28;20106;-65
2022/03/19 09:51:21;;;;;;;25.13;6.60;;;;;;;14.56;23.92;101680.28;5081643;28;20054;-66
2022/03/19 09:53:48;;;;;;;20.25;6.10;;;;;;;14.74;23.72;101679.13;5091471;28;20044;-73
2022/03/19 09:56:16;;;;;;;29.08;7.15;;;;;;;14.88;23.79;101679.59;5092762;28;20093;-73
2022/03/19 09:58:43;;;;;;;21.55;6.68;;;;;;;15.03;23.46;101683.59;5092566;28;20400;-72
2022/03/19 10:01:09;;;;;;;28.57;7.03;;;;;;;15.12;23.31;101681.22;5076422;28;20143;-68
2022/03/19 10:03:39;;;;;;;22.20;6.13;;;;;;;15.19;23.48;101681.00;5084998;28;20556;-73
2022/03/19 10:08:58;;;;;;;24.58;5.80;;;;;;;15.35;22.95;101666.28;5093539;28;20062;-74
2022/03/19 10:11:28;;;;;;;21.38;6.80;;;;;;;15.46;23.04;101667.19;5084726;28;20418;-72
2022/03/19 10:13:54;;;;;;;23.73;6.55;;;;;;;15.52;22.65;101670.84;5097411;28;20555;-73
2022/03/19 10:16:23;;;;;;;14.32;5.60;;;;;;;15.61;22.52;101674.78;5108561;28;20051;-75
2022/03/19 10:18:55;;;;;;;17.52;6.30;;;;;;;15.68;22.22;101680.03;5111477;28;20055;-75
2022/03/19 10:21:22;;;;;;;19.17;5.82;;;;;;;15.79;21.85;101679.03;5079980;28;20153;-75
2022/03/19 10:23:49;;;;;;;13.23;5.38;;;;;;;15.92;22.02;101682.47;5085848;28;20106;-75
2022/03/19 10:26:26;;;;;;;21.40;5.80;;;;;;;16.05;21.56;101670.13;5091750;28;20079;-74
2022/03/19 10:29:00;;;;;;;16.80;5.75;;;;;;;16.11;21.50;101682.88;5091582;28;20423;-74
2022/03/19 10:31:31;;;;;;;14.25;5.55;;;;;;;16.14;21.67;101683.16;5086287;28;20044;-74
2022/03/19 10:33:58;;;;;;;14.20;5.20;;;;;;;16.29;21.41;101681.59;5079383;28;20076;-74
2022/03/19 10:36:31;;;;;;;12.23;5.50;;;;;;;16.33;21.24;101681.88;5076153;28;20051;-75
2022/03/19 10:38:58;;;;;;;17.60;5.90;;;;;;;16.43;21.44;101688.28;5090029;28;20048;-73
2022/03/19 10:41:25;;;;;;;14.65;5.65;;;;;;;16.41;21.45;101681.38;5083672;28;20041;-77
2022/03/19 10:43:52;;;;;;;25.23;6.25;;;;;;;16.48;21.12;101672.88;5086414;28;20130;-74
2022/03/19 10:46:19;;;;;;;16.00;5.18;;;;;;;16.61;21.08;101680.63;5090294;28;20047;-74
2022/03/19 10:48:49;;;;;;;15.95;5.13;;;;;;;16.72;20.76;101684.28;5091087;28;20129;-74
2022/03/19 10:51:16;;;;;;;17.63;5.28;;;;;;;16.77;20.84;101680.69;5072115;28;20138;-74
2022/03/19 10:53:44;;;;;;;10.73;4.60;;;;;;;16.85;20.82;101669.94;5089964;28;20729;-75
2022/03/19 10:56:11;;;;;;;12.50;5.05;;;;;;;16.94;20.40;101672.19;5072370;28;20069;-74
2022/03/19 10:58:37;;;;;;;17.08;5.65;;;;;;;16.91;20.56;101669.97;5095397;28;20048;-73
2022/03/19 11:01:05;;;;;;;12.75;4.90;;;;;;;17.03;20.68;101670.59;5065978;28;20139;-76
2022/03/19 11:03:34;;;;;;;12.82;4.78;;;;;;;17.10;20.30;101676.66;5072304;28;20047;-76
2022/03/19 11:06:04;;;;;;;14.35;4.97;;;;;;;17.19;20.50;101676.97;5088084;28;20063;-76
2022/03/19 11:08:37;;;;;;;20.35;6.57;;;;;;;17.27;20.57;101662.63;5085871;28;20043;-77
2022/03/19 11:11:11;;;;;;;18.35;5.80;;;;;;;17.43;20.41;101663.44;5069472;28;20197;-76
2022/03/19 11:13:42;;;;;;;19.65;5.60;;;;;;;17.56;20.42;101669.53;5084090;28;20143;-77
2022/03/19 11:16:10;;;;;;;15.93;4.72;;;;;;;17.63;20.29;101655.41;5086504;28;20047;-76
2022/03/19 11:18:38;;;;;;;17.75;5.35;;;;;;;17.78;19.86;101665.63;5089747;28;20040;-75
2022/03/19 11:21:04;;;;;;;12.00;4.95;;;;;;;17.72;19.72;101643.50;5083876;28;20180;-75
2022/03/19 11:23:51;;;;;;;14.05;5.25;;;;;;;17.96;19.52;101661.47;5087850;28;20475;-75
2022/03/19 11:26:22;;;;;;;13.15;4.82;;;;;;;18.24;19.48;101645.38;5072368;28;20048;-75
2022/03/19 11:28:49;;;;;;;16.08;5.20;;;;;;;18.49;19.22;101655.53;5081277;28;20048;-74
2022/03/19 11:31:23;;;;;;;17.67;5.50;;;;;;;18.79;18.96;101652.88;5079124;28;20052;-74
2022/03/19 11:33:49;;;;;;;16.40;6.18;;;;;;;19.02;18.97;101659.69;5085377;28;20314;-74
2022/03/19 11:36:16;;;;;;;12.68;6.13;;;;;;;19.33;18.66;101651.16;5075756;28;20640;-74